sensor_id;sensor_type;location;lat;lon;timestamp;P1;durP1;ratioP1;P2;durP2;ratioP2
1128;SDS011;553;51.038;7.216;2022-10-18T00:00:02;12.03;;;8.83;;
1128;SDS011;553;51.038;7.216;2022-10-18T00:02:33;16.50;;;8.73;;
1128;SDS011;553;51.038;7.216;2022-10-18T00:05:00;12.20;;;9.37;;
1128;SDS011;553;51.038;7.216;2022-10-18T00:07:26;11.40;;;9.50;;
1128;SDS011;553;51.038;7.216;2022-10-18T00:09:53;15.47;;;9.90;;
1128;SDS011;553;51.038;7.216;2022-10-18T00:12:20;13.47;;;9.50;;
1128;SDS011;553;51.038;7.216;2022-10-18T00:14:47;13.67;;;10.13;;
1128;SDS011;553;51.038;7.216;2022-10-18T00:17:15;14.20;;;9.23;;
1128;SDS011;553;51.038;7.216;2022-10-18T00:19:42;10.50;;;8.60;;
1128;SDS011;553;51.038;7.216;2022-10-18T00:22:09;10.70;;;8.63;;
1128;SDS011;553;51.038;7.216;2022-10-18T00:24:36;9.03;;;7.73;;
1128;SDS011;553;51.038;7.216;2022-10-18T00:27:02;12.87;;;8.77;;
1128;SDS011;553;51.038;7.216;2022-10-18T00:29:29;13.30;;;8.77;;
1128;SDS011;553;51.038;7.216;2022-10-18T00:31:56;12.10;;;8.73;;
1128;SDS011;553;51.038;7.216;2022-10-18T00:34:22;11.90;;;9.77;;
1128;SDS011;553;51.038;7.216;2022-10-18T00:36:49;13.87;;;9.30;;
1128;SDS011;553;51.038;7.216;2022-10-18T00:39:17;12.40;;;9.00;;
1128;SDS011;553;51.038;7.216;2022-10-18T00:41:44;15.47;;;9.70;;
1128;SDS011;553;51.038;7.216;2022-10-18T00:46:42;11.97;;;9.50;;
1128;SDS011;553;51.038;7.216;2022-10-18T00:49:14;15.30;;;11.03;;
1128;SDS011;553;51.038;7.216;2022-10-18T00:51:56;13.17;;;10.20;;
1128;SDS011;553;51.038;7.216;2022-10-18T00:54:25;13.07;;;9.67;;
1128;SDS011;553;51.038;7.216;2022-10-18T00:56:54;13.40;;;10.57;;
1128;SDS011;553;51.038;7.216;2022-10-18T00:59:21;14.43;;;10.90;;
1128;SDS011;553;51.038;7.216;2022-10-18T01:01:49;14.20;;;11.50;;
1128;SDS011;553;51.038;7.216;2022-10-18T01:04:16;14.10;;;10.37;;
1128;SDS011;553;51.038;7.216;2022-10-18T01:09:29;19.97;;;12.40;;
1128;SDS011;553;51.038;7.216;2022-10-18T01:12:21;16.40;;;12.23;;
1128;SDS011;553;51.038;7.216;2022-10-18T01:15:10;15.07;;;11.03;;
1128;SDS011;553;51.038;7.216;2022-10-18T01:26:55;14.07;;;10.90;;
1128;SDS011;553;51.038;7.216;2022-10-18T01:29:57;15.07;;;11.20;;
1128;SDS011;553;51.038;7.216;2022-10-18T01:32:52;18.47;;;12.87;;
1128;SDS011;553;51.038;7.216;2022-10-18T01:35:29;16.50;;;11.43;;
1128;SDS011;553;51.038;7.216;2022-10-18T01:37:59;15.37;;;11.13;;
1128;SDS011;553;51.038;7.216;2022-10-18T01:40:30;15.40;;;10.53;;
1128;SDS011;553;51.038;7.216;2022-10-18T01:42:58;16.80;;;13.30;;
1128;SDS011;553;51.038;7.216;2022-10-18T01:45:26;21.50;;;13.23;;
1128;SDS011;553;51.038;7.216;2022-10-18T01:47:54;19.93;;;13.07;;
1128;SDS011;553;51.038;7.216;2022-10-18T01:50:28;18.17;;;12.00;;
1128;SDS011;553;51.038;7.216;2022-10-18T01:52:56;16.90;;;11.00;;
1128;SDS011;553;51.038;7.216;2022-10-18T01:55:25;17.23;;;11.40;;
1128;SDS011;553;51.038;7.216;2022-10-18T01:58:11;17.80;;;12.63;;
1128;SDS011;553;51.038;7.216;2022-10-18T02:00:41;16.77;;;11.90;;
1128;SDS011;553;51.038;7.216;2022-10-18T02:03:20;16.47;;;11.83;;
1128;SDS011;553;51.038;7.216;2022-10-18T02:09:08;19.07;;;13.57;;
1128;SDS011;553;51.038;7.216;2022-10-18T02:11:28;19.10;;;13.23;;
1128;SDS011;553;51.038;7.216;2022-10-18T02:13:57;18.77;;;11.70;;
1128;SDS011;553;51.038;7.216;2022-10-18T02:16:36;21.10;;;13.10;;
1128;SDS011;553;51.038;7.216;2022-10-18T02:21:42;15.37;;;11.13;;
1128;SDS011;553;51.038;7.216;2022-10-18T02:24:11;17.73;;;11.93;;
1128;SDS011;553;51.038;7.216;2022-10-18T02:26:39;19.73;;;10.63;;
1128;SDS011;553;51.038;7.216;2022-10-18T02:29:06;16.73;;;11.67;;
1128;SDS011;553;51.038;7.216;2022-10-18T02:31:35;13.70;;;10.37;;
1128;SDS011;553;51.038;7.216;2022-10-18T02:34:09;14.03;;;10.53;;
1128;SDS011;553;51.038;7.216;2022-10-18T02:36:54;17.50;;;11.20;;
1128;SDS011;553;51.038;7.216;2022-10-18T02:39:26;13.23;;;9.87;;
1128;SDS011;553;51.038;7.216;2022-10-18T02:41:55;13.47;;;9.17;;
1128;SDS011;553;51.038;7.216;2022-10-18T02:44:22;17.20;;;10.30;;
1128;SDS011;553;51.038;7.216;2022-10-18T02:46:49;12.63;;;9.60;;
1128;SDS011;553;51.038;7.216;2022-10-18T02:49:16;13.90;;;9.90;;
1128;SDS011;553;51.038;7.216;2022-10-18T02:51:43;15.63;;;10.33;;
1128;SDS011;553;51.038;7.216;2022-10-18T02:54:09;12.37;;;7.97;;
1128;SDS011;553;51.038;7.216;2022-10-18T02:56:36;12.43;;;8.70;;
1128;SDS011;553;51.038;7.216;2022-10-18T02:59:03;12.60;;;10.03;;
1128;SDS011;553;51.038;7.216;2022-10-18T03:01:35;13.20;;;9.63;;
1128;SDS011;553;51.038;7.216;2022-10-18T03:04:02;11.77;;;8.63;;
1128;SDS011;553;51.038;7.216;2022-10-18T03:06:30;14.50;;;9.80;;
1128;SDS011;553;51.038;7.216;2022-10-18T03:08:57;13.23;;;9.97;;
1128;SDS011;553;51.038;7.216;2022-10-18T03:11:23;14.73;;;9.77;;
1128;SDS011;553;51.038;7.216;2022-10-18T03:13:50;14.07;;;10.30;;
1128;SDS011;553;51.038;7.216;2022-10-18T03:16:17;15.13;;;10.07;;
1128;SDS011;553;51.038;7.216;2022-10-18T03:18:43;13.03;;;9.73;;
1128;SDS011;553;51.038;7.216;2022-10-18T03:21:10;14.73;;;9.47;;
1128;SDS011;553;51.038;7.216;2022-10-18T03:23:37;14.70;;;10.03;;
1128;SDS011;553;51.038;7.216;2022-10-18T03:26:05;14.20;;;9.90;;
1128;SDS011;553;51.038;7.216;2022-10-18T03:28:31;13.67;;;9.80;;
1128;SDS011;553;51.038;7.216;2022-10-18T03:30:59;17.53;;;10.93;;
1128;SDS011;553;51.038;7.216;2022-10-18T03:33:27;17.37;;;9.60;;
1128;SDS011;553;51.038;7.216;2022-10-18T03:35:54;18.73;;;12.13;;
1128;SDS011;553;51.038;7.216;2022-10-18T03:38:20;15.93;;;12.13;;
1128;SDS011;553;51.038;7.216;2022-10-18T03:40:47;17.60;;;11.73;;
1128;SDS011;553;51.038;7.216;2022-10-18T03:43:14;14.67;;;11.27;;
1128;SDS011;553;51.038;7.216;2022-10-18T03:45:41;17.23;;;10.73;;
1128;SDS011;553;51.038;7.216;2022-10-18T03:48:08;16.00;;;11.37;;
1128;SDS011;553;51.038;7.216;2022-10-18T03:50:34;17.10;;;10.80;;
1128;SDS011;553;51.038;7.216;2022-10-18T03:53:01;15.30;;;10.20;;
1128;SDS011;553;51.038;7.216;2022-10-18T03:55:28;15.80;;;10.80;;
1128;SDS011;553;51.038;7.216;2022-10-18T03:57:54;15.90;;;10.60;;
1128;SDS011;553;51.038;7.216;2022-10-18T04:00:21;14.87;;;10.13;;
1128;SDS011;553;51.038;7.216;2022-10-18T04:02:48;13.50;;;9.33;;
1128;SDS011;553;51.038;7.216;2022-10-18T04:05:20;18.40;;;10.83;;
1128;SDS011;553;51.038;7.216;2022-10-18T04:07:49;16.33;;;9.67;;
1128;SDS011;553;51.038;7.216;2022-10-18T04:10:15;16.90;;;11.40;;
1128;SDS011;553;51.038;7.216;2022-10-18T04:12:43;13.10;;;9.63;;
1128;SDS011;553;51.038;7.216;2022-10-18T04:15:10;14.37;;;9.50;;
1128;SDS011;553;51.038;7.216;2022-10-18T04:17:36;19.13;;;9.80;;
1128;SDS011;553;51.038;7.216;2022-10-18T04:20:03;14.40;;;9.57;;
1128;SDS011;553;51.038;7.216;2022-10-18T04:22:30;17.67;;;9.70;;
1128;SDS011;553;51.038;7.216;2022-10-18T04:24:57;15.77;;;10.40;;
1128;SDS011;553;51.038;7.216;2022-10-18T04:27:23;15.53;;;9.40;;
1128;SDS011;553;51.038;7.216;2022-10-18T04:29:51;16.20;;;10.33;;
1128;SDS011;553;51.038;7.216;2022-10-18T04:32:18;15.10;;;9.50;;
1128;SDS011;553;51.038;7.216;2022-10-18T04:34:44;15.13;;;10.00;;
1128;SDS011;553;51.038;7.216;2022-10-18T04:37:11;17.40;;;10.63;;
1128;SDS011;553;51.038;7.216;2022-10-18T04:39:37;17.73;;;11.90;;
1128;SDS011;553;51.038;7.216;2022-10-18T04:42:04;20.30;;;12.33;;
1128;SDS011;553;51.038;7.216;2022-10-18T04:44:31;18.63;;;12.90;;
1128;SDS011;553;51.038;7.216;2022-10-18T04:46:57;23.50;;;13.17;;
1128;SDS011;553;51.038;7.216;2022-10-18T04:49:24;26.67;;;14.77;;
1128;SDS011;553;51.038;7.216;2022-10-18T04:51:50;28.87;;;15.50;;
1128;SDS011;553;51.038;7.216;2022-10-18T04:54:17;25.83;;;16.30;;
1128;SDS011;553;51.038;7.216;2022-10-18T04:56:44;29.70;;;16.40;;
1128;SDS011;553;51.038;7.216;2022-10-18T04:59:10;28.03;;;13.80;;
1128;SDS011;553;51.038;7.216;2022-10-18T05:01:37;24.63;;;13.23;;
1128;SDS011;553;51.038;7.216;2022-10-18T05:04:03;27.00;;;14.60;;
1128;SDS011;553;51.038;7.216;2022-10-18T05:06:34;25.00;;;13.23;;
1128;SDS011;553;51.038;7.216;2022-10-18T05:09:01;26.53;;;14.57;;
1128;SDS011;553;51.038;7.216;2022-10-18T05:11:27;22.80;;;13.03;;
1128;SDS011;553;51.038;7.216;2022-10-18T05:13:54;24.63;;;14.40;;
1128;SDS011;553;51.038;7.216;2022-10-18T05:16:21;24.50;;;13.80;;
1128;SDS011;553;51.038;7.216;2022-10-18T05:18:47;20.67;;;12.40;;
1128;SDS011;553;51.038;7.216;2022-10-18T05:21:14;23.87;;;14.67;;
1128;SDS011;553;51.038;7.216;2022-10-18T05:23:41;19.97;;;13.07;;
1128;SDS011;553;51.038;7.216;2022-10-18T05:26:08;21.07;;;13.17;;
1128;SDS011;553;51.038;7.216;2022-10-18T05:28:34;23.40;;;12.80;;
1128;SDS011;553;51.038;7.216;2022-10-18T05:31:06;22.53;;;13.77;;
1128;SDS011;553;51.038;7.216;2022-10-18T05:33:34;22.10;;;13.13;;
1128;SDS011;553;51.038;7.216;2022-10-18T05:36:01;20.83;;;12.90;;
1128;SDS011;553;51.038;7.216;2022-10-18T05:38:28;23.40;;;13.80;;
1128;SDS011;553;51.038;7.216;2022-10-18T05:40:56;25.07;;;14.00;;
1128;SDS011;553;51.038;7.216;2022-10-18T05:43:27;21.10;;;13.30;;
1128;SDS011;553;51.038;7.216;2022-10-18T05:45:54;21.47;;;12.83;;
1128;SDS011;553;51.038;7.216;2022-10-18T05:48:21;22.30;;;12.70;;
1128;SDS011;553;51.038;7.216;2022-10-18T05:50:48;23.93;;;13.40;;
1128;SDS011;553;51.038;7.216;2022-10-18T05:53:14;24.47;;;13.97;;
1128;SDS011;553;51.038;7.216;2022-10-18T05:56:01;27.43;;;13.50;;
1128;SDS011;553;51.038;7.216;2022-10-18T05:58:29;23.57;;;13.83;;
1128;SDS011;553;51.038;7.216;2022-10-18T06:00:59;21.07;;;12.90;;
1128;SDS011;553;51.038;7.216;2022-10-18T06:03:26;21.20;;;12.20;;
1128;SDS011;553;51.038;7.216;2022-10-18T06:06:02;25.47;;;12.87;;
1128;SDS011;553;51.038;7.216;2022-10-18T06:08:33;24.87;;;13.80;;
1128;SDS011;553;51.038;7.216;2022-10-18T06:11:05;27.03;;;14.57;;
1128;SDS011;553;51.038;7.216;2022-10-18T06:13:33;24.37;;;14.60;;
1128;SDS011;553;51.038;7.216;2022-10-18T06:15:59;26.00;;;13.97;;
1128;SDS011;553;51.038;7.216;2022-10-18T06:18:26;21.47;;;13.40;;
1128;SDS011;553;51.038;7.216;2022-10-18T06:20:57;23.37;;;14.90;;
1128;SDS011;553;51.038;7.216;2022-10-18T06:23:25;25.40;;;13.43;;
1128;SDS011;553;51.038;7.216;2022-10-18T06:25:52;26.33;;;13.47;;
1128;SDS011;553;51.038;7.216;2022-10-18T06:28:22;20.90;;;12.83;;
1128;SDS011;553;51.038;7.216;2022-10-18T06:30:49;21.20;;;12.50;;
1128;SDS011;553;51.038;7.216;2022-10-18T06:33:16;25.30;;;12.93;;
1128;SDS011;553;51.038;7.216;2022-10-18T06:35:42;27.10;;;13.93;;
1128;SDS011;553;51.038;7.216;2022-10-18T06:38:09;25.47;;;14.03;;
1128;SDS011;553;51.038;7.216;2022-10-18T06:40:36;23.20;;;12.03;;
1128;SDS011;553;51.038;7.216;2022-10-18T06:43:03;24.90;;;12.07;;
1128;SDS011;553;51.038;7.216;2022-10-18T06:45:45;21.73;;;12.77;;
1128;SDS011;553;51.038;7.216;2022-10-18T06:48:13;22.23;;;12.50;;
1128;SDS011;553;51.038;7.216;2022-10-18T06:50:39;25.40;;;13.30;;
1128;SDS011;553;51.038;7.216;2022-10-18T06:53:06;21.40;;;11.93;;
1128;SDS011;553;51.038;7.216;2022-10-18T06:55:34;22.33;;;12.70;;
1128;SDS011;553;51.038;7.216;2022-10-18T06:58:01;22.97;;;11.63;;
1128;SDS011;553;51.038;7.216;2022-10-18T07:00:27;26.27;;;12.43;;
1128;SDS011;553;51.038;7.216;2022-10-18T07:02:55;22.27;;;13.33;;
1128;SDS011;553;51.038;7.216;2022-10-18T07:05:23;31.07;;;14.30;;
1128;SDS011;553;51.038;7.216;2022-10-18T07:07:49;27.90;;;13.50;;
1128;SDS011;553;51.038;7.216;2022-10-18T07:10:21;30.93;;;14.87;;
1128;SDS011;553;51.038;7.216;2022-10-18T07:12:49;31.60;;;15.47;;
1128;SDS011;553;51.038;7.216;2022-10-18T07:15:21;30.00;;;15.47;;
1128;SDS011;553;51.038;7.216;2022-10-18T07:17:49;34.37;;;16.90;;
1128;SDS011;553;51.038;7.216;2022-10-18T07:20:15;26.30;;;15.10;;
1128;SDS011;553;51.038;7.216;2022-10-18T07:22:42;30.60;;;15.50;;
1128;SDS011;553;51.038;7.216;2022-10-18T07:25:09;27.17;;;14.63;;
1128;SDS011;553;51.038;7.216;2022-10-18T07:27:36;29.50;;;16.47;;
1128;SDS011;553;51.038;7.216;2022-10-18T07:30:04;28.17;;;14.77;;
1128;SDS011;553;51.038;7.216;2022-10-18T07:32:32;27.20;;;16.17;;
1128;SDS011;553;51.038;7.216;2022-10-18T07:34:59;14.70;;;9.00;;
1128;SDS011;553;51.038;7.216;2022-10-18T07:37:26;25.10;;;15.60;;
1128;SDS011;553;51.038;7.216;2022-10-18T07:39:55;26.63;;;15.07;;
1128;SDS011;553;51.038;7.216;2022-10-18T07:42:22;27.50;;;15.20;;
1128;SDS011;553;51.038;7.216;2022-10-18T07:44:48;30.53;;;15.50;;
1128;SDS011;553;51.038;7.216;2022-10-18T07:47:15;20.77;;;13.60;;
1128;SDS011;553;51.038;7.216;2022-10-18T07:49:42;30.50;;;14.73;;
1128;SDS011;553;51.038;7.216;2022-10-18T07:52:09;28.23;;;14.43;;
1128;SDS011;553;51.038;7.216;2022-10-18T07:54:36;27.57;;;14.53;;
1128;SDS011;553;51.038;7.216;2022-10-18T07:57:03;24.00;;;14.07;;
1128;SDS011;553;51.038;7.216;2022-10-18T07:59:30;27.23;;;15.77;;
1128;SDS011;553;51.038;7.216;2022-10-18T08:01:57;23.70;;;13.27;;
1128;SDS011;553;51.038;7.216;2022-10-18T08:04:23;25.97;;;15.70;;
1128;SDS011;553;51.038;7.216;2022-10-18T08:06:50;26.37;;;14.87;;
1128;SDS011;553;51.038;7.216;2022-10-18T08:09:17;26.67;;;14.90;;
1128;SDS011;553;51.038;7.216;2022-10-18T08:11:43;29.60;;;15.70;;
1128;SDS011;553;51.038;7.216;2022-10-18T08:14:10;28.77;;;16.87;;
1128;SDS011;553;51.038;7.216;2022-10-18T08:16:36;28.87;;;15.93;;
1128;SDS011;553;51.038;7.216;2022-10-18T08:19:03;32.17;;;17.03;;
1128;SDS011;553;51.038;7.216;2022-10-18T08:21:30;28.53;;;16.30;;
1128;SDS011;553;51.038;7.216;2022-10-18T08:23:57;34.27;;;17.57;;
1128;SDS011;553;51.038;7.216;2022-10-18T08:26:23;54.10;;;22.30;;
1128;SDS011;553;51.038;7.216;2022-10-18T08:28:50;49.63;;;25.37;;
1128;SDS011;553;51.038;7.216;2022-10-18T08:31:36;55.13;;;27.03;;
1128;SDS011;553;51.038;7.216;2022-10-18T08:34:03;60.10;;;26.87;;
1128;SDS011;553;51.038;7.216;2022-10-18T08:36:30;67.00;;;27.47;;
1128;SDS011;553;51.038;7.216;2022-10-18T08:38:57;64.00;;;27.77;;
1128;SDS011;553;51.038;7.216;2022-10-18T08:46:45;60.60;;;24.80;;
1128;SDS011;553;51.038;7.216;2022-10-18T08:49:36;67.17;;;23.90;;
1128;SDS011;553;51.038;7.216;2022-10-18T08:55:30;68.47;;;26.47;;
1128;SDS011;553;51.038;7.216;2022-10-18T08:58:18;65.57;;;25.67;;
1128;SDS011;553;51.038;7.216;2022-10-18T09:00:53;64.23;;;26.60;;
1128;SDS011;553;51.038;7.216;2022-10-18T09:06:22;68.70;;;25.43;;
1128;SDS011;553;51.038;7.216;2022-10-18T09:09:14;73.00;;;26.00;;
1128;SDS011;553;51.038;7.216;2022-10-18T09:12:01;71.87;;;27.37;;
1128;SDS011;553;51.038;7.216;2022-10-18T09:15:15;79.43;;;28.23;;
1128;SDS011;553;51.038;7.216;2022-10-18T09:18:03;70.83;;;25.97;;
1128;SDS011;553;51.038;7.216;2022-10-18T09:20:59;92.77;;;29.30;;
1128;SDS011;553;51.038;7.216;2022-10-18T09:23:39;89.17;;;28.43;;
1128;SDS011;553;51.038;7.216;2022-10-18T09:26:21;76.63;;;27.63;;
1128;SDS011;553;51.038;7.216;2022-10-18T09:29:06;91.93;;;28.70;;
1128;SDS011;553;51.038;7.216;2022-10-18T09:34:11;83.17;;;29.87;;
1128;SDS011;553;51.038;7.216;2022-10-18T09:36:51;84.00;;;30.70;;
1128;SDS011;553;51.038;7.216;2022-10-18T09:39:20;84.20;;;29.33;;
1128;SDS011;553;51.038;7.216;2022-10-18T09:41:53;86.23;;;31.00;;
1128;SDS011;553;51.038;7.216;2022-10-18T09:44:40;78.70;;;29.20;;
1128;SDS011;553;51.038;7.216;2022-10-18T09:50:01;71.33;;;30.53;;
1128;SDS011;553;51.038;7.216;2022-10-18T09:52:41;79.30;;;32.83;;
1128;SDS011;553;51.038;7.216;2022-10-18T09:55:17;84.30;;;31.83;;
1128;SDS011;553;51.038;7.216;2022-10-18T09:57:50;72.57;;;31.13;;
1128;SDS011;553;51.038;7.216;2022-10-18T10:00:24;78.50;;;30.63;;
1128;SDS011;553;51.038;7.216;2022-10-18T10:02:54;80.23;;;31.13;;
1128;SDS011;553;51.038;7.216;2022-10-18T10:05:21;71.90;;;29.37;;
1128;SDS011;553;51.038;7.216;2022-10-18T10:07:48;66.40;;;28.57;;
1128;SDS011;553;51.038;7.216;2022-10-18T10:10:27;74.83;;;29.33;;
1128;SDS011;553;51.038;7.216;2022-10-18T10:13:03;72.00;;;27.40;;
1128;SDS011;553;51.038;7.216;2022-10-18T10:15:32;71.77;;;31.03;;
1128;SDS011;553;51.038;7.216;2022-10-18T10:18:20;79.50;;;29.90;;
1128;SDS011;553;51.038;7.216;2022-10-18T10:20:52;70.23;;;29.13;;
1128;SDS011;553;51.038;7.216;2022-10-18T10:23:30;60.43;;;26.20;;
1128;SDS011;553;51.038;7.216;2022-10-18T10:26:02;62.87;;;25.97;;
1128;SDS011;553;51.038;7.216;2022-10-18T10:28:45;58.73;;;27.30;;
1128;SDS011;553;51.038;7.216;2022-10-18T10:31:33;60.20;;;27.30;;
1128;SDS011;553;51.038;7.216;2022-10-18T10:34:12;62.80;;;29.17;;
1128;SDS011;553;51.038;7.216;2022-10-18T10:36:46;60.67;;;26.30;;
1128;SDS011;553;51.038;7.216;2022-10-18T10:39:15;53.97;;;25.63;;
1128;SDS011;553;51.038;7.216;2022-10-18T10:41:48;61.73;;;27.30;;
1128;SDS011;553;51.038;7.216;2022-10-18T10:44:27;52.80;;;24.97;;
1128;SDS011;553;51.038;7.216;2022-10-18T10:46:56;49.97;;;25.63;;
1128;SDS011;553;51.038;7.216;2022-10-18T10:52:06;42.53;;;22.83;;
1128;SDS011;553;51.038;7.216;2022-10-18T10:54:52;41.27;;;21.33;;
1128;SDS011;553;51.038;7.216;2022-10-18T10:57:36;43.80;;;22.43;;
1128;SDS011;553;51.038;7.216;2022-10-18T11:00:03;53.37;;;24.80;;
1128;SDS011;553;51.038;7.216;2022-10-18T11:02:31;46.97;;;24.40;;
1128;SDS011;553;51.038;7.216;2022-10-18T11:07:48;45.00;;;23.10;;
1128;SDS011;553;51.038;7.216;2022-10-18T11:10:23;40.20;;;23.30;;
1128;SDS011;553;51.038;7.216;2022-10-18T11:15:52;35.63;;;21.60;;
1128;SDS011;553;51.038;7.216;2022-10-18T11:18:26;34.47;;;21.73;;
1128;SDS011;553;51.038;7.216;2022-10-18T11:23:33;38.47;;;22.40;;
1128;SDS011;553;51.038;7.216;2022-10-18T11:26:05;40.23;;;23.77;;
1128;SDS011;553;51.038;7.216;2022-10-18T11:28:54;44.10;;;22.47;;
1128;SDS011;553;51.038;7.216;2022-10-18T11:36:54;41.37;;;24.30;;
1128;SDS011;553;51.038;7.216;2022-10-18T11:42:57;51.73;;;25.27;;
1128;SDS011;553;51.038;7.216;2022-10-18T11:51:14;41.73;;;24.83;;
1128;SDS011;553;51.038;7.216;2022-10-18T11:54:19;38.47;;;22.50;;
1128;SDS011;553;51.038;7.216;2022-10-18T12:05:19;37.13;;;22.17;;
1128;SDS011;553;51.038;7.216;2022-10-18T12:08:09;36.90;;;21.53;;
1128;SDS011;553;51.038;7.216;2022-10-18T12:10:47;30.20;;;19.90;;
1128;SDS011;553;51.038;7.216;2022-10-18T12:13:40;32.40;;;21.87;;
1128;SDS011;553;51.038;7.216;2022-10-18T12:16:14;35.10;;;23.33;;
1128;SDS011;553;51.038;7.216;2022-10-18T12:18:48;38.00;;;23.57;;
1128;SDS011;553;51.038;7.216;2022-10-18T12:21:19;42.40;;;26.30;;
1128;SDS011;553;51.038;7.216;2022-10-18T12:23:52;35.47;;;26.07;;
1128;SDS011;553;51.038;7.216;2022-10-18T12:26:36;40.43;;;25.33;;
1128;SDS011;553;51.038;7.216;2022-10-18T12:29:06;30.60;;;21.23;;
1128;SDS011;553;51.038;7.216;2022-10-18T12:31:47;35.07;;;22.40;;
1128;SDS011;553;51.038;7.216;2022-10-18T12:36:57;35.40;;;24.30;;
1128;SDS011;553;51.038;7.216;2022-10-18T12:42:43;35.40;;;23.13;;
1128;SDS011;553;51.038;7.216;2022-10-18T12:47:38;33.10;;;21.37;;
1128;SDS011;553;51.038;7.216;2022-10-18T12:50:06;35.10;;;22.43;;
1128;SDS011;553;51.038;7.216;2022-10-18T12:55:34;36.40;;;23.20;;
1128;SDS011;553;51.038;7.216;2022-10-18T12:58:04;42.57;;;24.97;;
1128;SDS011;553;51.038;7.216;2022-10-18T13:19:22;38.90;;;25.10;;
1128;SDS011;553;51.038;7.216;2022-10-18T13:22:21;39.20;;;25.83;;
1128;SDS011;553;51.038;7.216;2022-10-18T13:32:59;45.40;;;30.60;;
1128;SDS011;553;51.038;7.216;2022-10-18T13:41:06;47.40;;;31.80;;
1128;SDS011;553;51.038;7.216;2022-10-18T13:55:15;64.50;;;37.80;;
1128;SDS011;553;51.038;7.216;2022-10-18T13:57:56;64.03;;;37.33;;
1128;SDS011;553;51.038;7.216;2022-10-18T14:00:39;59.77;;;37.80;;
1128;SDS011;553;51.038;7.216;2022-10-18T14:03:18;56.80;;;33.03;;
1128;SDS011;553;51.038;7.216;2022-10-18T14:06:26;54.03;;;32.10;;
1128;SDS011;553;51.038;7.216;2022-10-18T14:08:59;47.33;;;29.50;;
1128;SDS011;553;51.038;7.216;2022-10-18T14:11:51;45.37;;;29.47;;
1128;SDS011;553;51.038;7.216;2022-10-18T14:20:38;51.80;;;29.70;;
1128;SDS011;553;51.038;7.216;2022-10-18T14:23:28;44.90;;;27.57;;
1128;SDS011;553;51.038;7.216;2022-10-18T14:26:05;42.80;;;26.43;;
1128;SDS011;553;51.038;7.216;2022-10-18T14:28:38;44.70;;;27.80;;
1128;SDS011;553;51.038;7.216;2022-10-18T14:31:24;46.60;;;26.27;;
1128;SDS011;553;51.038;7.216;2022-10-18T14:33:52;40.97;;;25.03;;
1128;SDS011;553;51.038;7.216;2022-10-18T14:36:24;40.00;;;24.03;;
1128;SDS011;553;51.038;7.216;2022-10-18T14:38:56;37.53;;;22.57;;
1128;SDS011;553;51.038;7.216;2022-10-18T14:41:32;40.33;;;23.70;;
1128;SDS011;553;51.038;7.216;2022-10-18T14:44:17;35.37;;;22.13;;
1128;SDS011;553;51.038;7.216;2022-10-18T14:47:01;35.60;;;22.47;;
1128;SDS011;553;51.038;7.216;2022-10-18T14:49:43;37.40;;;22.90;;
1128;SDS011;553;51.038;7.216;2022-10-18T14:52:11;34.53;;;20.67;;
1128;SDS011;553;51.038;7.216;2022-10-18T14:54:53;31.07;;;19.43;;
1128;SDS011;553;51.038;7.216;2022-10-18T14:57:22;30.23;;;19.10;;
1128;SDS011;553;51.038;7.216;2022-10-18T14:59:58;33.13;;;19.30;;
1128;SDS011;553;51.038;7.216;2022-10-18T15:02:29;31.33;;;19.03;;
1128;SDS011;553;51.038;7.216;2022-10-18T15:05:06;35.23;;;18.43;;
1128;SDS011;553;51.038;7.216;2022-10-18T15:07:35;26.93;;;17.93;;
1128;SDS011;553;51.038;7.216;2022-10-18T15:10:02;29.63;;;15.80;;
1128;SDS011;553;51.038;7.216;2022-10-18T15:12:30;25.70;;;16.10;;
1128;SDS011;553;51.038;7.216;2022-10-18T15:15:20;22.57;;;14.50;;
1128;SDS011;553;51.038;7.216;2022-10-18T15:17:52;27.93;;;16.17;;
1128;SDS011;553;51.038;7.216;2022-10-18T15:20:24;20.20;;;13.87;;
1128;SDS011;553;51.038;7.216;2022-10-18T15:22:53;22.17;;;12.90;;
1128;SDS011;553;51.038;7.216;2022-10-18T15:25:40;22.50;;;14.93;;
1128;SDS011;553;51.038;7.216;2022-10-18T15:28:15;23.03;;;13.47;;
1128;SDS011;553;51.038;7.216;2022-10-18T15:30:52;24.93;;;14.30;;
1128;SDS011;553;51.038;7.216;2022-10-18T15:33:20;22.50;;;15.00;;
1128;SDS011;553;51.038;7.216;2022-10-18T15:35:48;25.03;;;14.70;;
1128;SDS011;553;51.038;7.216;2022-10-18T15:38:26;27.27;;;14.30;;
1128;SDS011;553;51.038;7.216;2022-10-18T15:40:57;22.70;;;13.63;;
1128;SDS011;553;51.038;7.216;2022-10-18T15:45:54;19.90;;;12.60;;
1128;SDS011;553;51.038;7.216;2022-10-18T15:48:28;20.13;;;11.53;;
1128;SDS011;553;51.038;7.216;2022-10-18T15:51:00;23.07;;;12.30;;
1128;SDS011;553;51.038;7.216;2022-10-18T15:56:11;18.00;;;12.00;;
1128;SDS011;553;51.038;7.216;2022-10-18T15:58:53;20.33;;;13.37;;
1128;SDS011;553;51.038;7.216;2022-10-18T16:01:42;23.10;;;13.80;;
1128;SDS011;553;51.038;7.216;2022-10-18T16:04:12;24.97;;;13.80;;
1128;SDS011;553;51.038;7.216;2022-10-18T16:06:50;22.03;;;13.50;;
1128;SDS011;553;51.038;7.216;2022-10-18T16:09:18;22.60;;;14.70;;
1128;SDS011;553;51.038;7.216;2022-10-18T16:11:46;21.33;;;12.90;;
1128;SDS011;553;51.038;7.216;2022-10-18T16:14:22;21.47;;;14.20;;
1128;SDS011;553;51.038;7.216;2022-10-18T16:16:53;24.20;;;14.40;;
1128;SDS011;553;51.038;7.216;2022-10-18T16:19:25;25.83;;;14.60;;
1128;SDS011;553;51.038;7.216;2022-10-18T16:21:52;21.40;;;13.77;;
1128;SDS011;553;51.038;7.216;2022-10-18T16:24:19;23.60;;;14.63;;
1128;SDS011;553;51.038;7.216;2022-10-18T16:26:46;24.93;;;14.50;;
1128;SDS011;553;51.038;7.216;2022-10-18T16:29:14;21.90;;;15.97;;
1128;SDS011;553;51.038;7.216;2022-10-18T16:31:44;28.93;;;18.10;;
1128;SDS011;553;51.038;7.216;2022-10-18T16:34:11;28.13;;;19.03;;
1128;SDS011;553;51.038;7.216;2022-10-18T16:36:39;21.63;;;14.20;;
1128;SDS011;553;51.038;7.216;2022-10-18T16:39:09;20.13;;;12.40;;
1128;SDS011;553;51.038;7.216;2022-10-18T16:41:39;26.27;;;13.00;;
1128;SDS011;553;51.038;7.216;2022-10-18T16:44:06;28.80;;;13.50;;
1128;SDS011;553;51.038;7.216;2022-10-18T16:46:33;16.27;;;11.93;;
1128;SDS011;553;51.038;7.216;2022-10-18T16:49:00;16.00;;;12.27;;
1128;SDS011;553;51.038;7.216;2022-10-18T16:51:27;16.60;;;12.67;;
1128;SDS011;553;51.038;7.216;2022-10-18T16:53:54;18.97;;;11.60;;
1128;SDS011;553;51.038;7.216;2022-10-18T16:56:24;18.17;;;12.63;;
1128;SDS011;553;51.038;7.216;2022-10-18T16:58:53;22.07;;;12.40;;
1128;SDS011;553;51.038;7.216;2022-10-18T17:01:20;22.83;;;13.20;;
1128;SDS011;553;51.038;7.216;2022-10-18T17:03:48;25.43;;;13.47;;
1128;SDS011;553;51.038;7.216;2022-10-18T17:06:23;24.43;;;13.10;;
1128;SDS011;553;51.038;7.216;2022-10-18T17:08:51;22.00;;;13.57;;
1128;SDS011;553;51.038;7.216;2022-10-18T17:11:19;29.20;;;15.33;;
1128;SDS011;553;51.038;7.216;2022-10-18T17:13:47;21.17;;;13.70;;
1128;SDS011;553;51.038;7.216;2022-10-18T17:18:46;22.17;;;13.50;;
1128;SDS011;553;51.038;7.216;2022-10-18T17:21:13;19.53;;;12.50;;
1128;SDS011;553;51.038;7.216;2022-10-18T17:23:39;21.47;;;12.43;;
1128;SDS011;553;51.038;7.216;2022-10-18T17:26:08;22.03;;;13.60;;
1128;SDS011;553;51.038;7.216;2022-10-18T17:28:58;20.80;;;13.60;;
1128;SDS011;553;51.038;7.216;2022-10-18T17:31:29;17.30;;;12.80;;
1128;SDS011;553;51.038;7.216;2022-10-18T17:33:57;24.40;;;15.37;;
1128;SDS011;553;51.038;7.216;2022-10-18T17:36:26;17.67;;;12.70;;
1128;SDS011;553;51.038;7.216;2022-10-18T17:38:53;17.90;;;12.97;;
1128;SDS011;553;51.038;7.216;2022-10-18T17:41:20;28.20;;;15.10;;
1128;SDS011;553;51.038;7.216;2022-10-18T17:43:47;17.50;;;14.03;;
1128;SDS011;553;51.038;7.216;2022-10-18T17:46:14;22.50;;;14.67;;
1128;SDS011;553;51.038;7.216;2022-10-18T17:48:42;22.50;;;14.03;;